createdAt,value
2022-09-02T00:00:08.985Z,99500.19
2022-09-02T00:01:44.567Z,99492.09
2022-09-02T00:03:17.064Z,99500.94
2022-09-02T00:04:49.471Z,99500.19
2022-09-02T00:06:21.563Z,99496.63
2022-09-02T00:07:55.107Z,99492.28
2022-09-02T00:09:27.282Z,99491.56
2022-09-02T00:11:01.430Z,99493.25
2022-09-02T00:12:33.559Z,99495.03
2022-09-02T00:14:11.314Z,99489.56
2022-09-02T00:15:44.320Z,99495.75
2022-09-02T00:17:16.355Z,99497.66
2022-09-02T00:18:49.361Z,99489.00
2022-09-02T00:20:21.897Z,99488.19
2022-09-02T00:21:55.205Z,99487.53
2022-09-02T00:23:27.416Z,99488.06
2022-09-02T00:25:00.948Z,99489.00
2022-09-02T00:26:33.331Z,99489.88
2022-09-02T00:28:06.189Z,99485.44
2022-09-02T00:29:40.082Z,99489.31
2022-09-02T00:31:12.201Z,99489.66
2022-09-02T00:32:44.501Z,99493.13
2022-09-02T00:34:16.882Z,99499.25
2022-09-02T00:35:49.392Z,99502.94
2022-09-02T00:37:21.448Z,99497.88
2022-09-02T00:38:53.553Z,99492.72
2022-09-02T00:40:26.683Z,99496.19
2022-09-02T00:41:58.914Z,99494.50
2022-09-02T00:43:39.959Z,99495.16
2022-09-02T00:45:12.663Z,99490.72
2022-09-02T00:46:45.116Z,99488.81
2022-09-02T00:48:17.259Z,99493.25
2022-09-02T00:49:52.285Z,99492.38
2022-09-02T00:51:24.487Z,99492.63
2022-09-02T00:53:00.810Z,99499.56
2022-09-02T00:54:35.771Z,99497.06
2022-09-02T00:56:13.343Z,99500.63
2022-09-02T00:57:49.108Z,99497.16
2022-09-02T00:59:26.361Z,99500.72
2022-09-02T01:00:59.693Z,99500.94
2022-09-02T01:02:32.161Z,99495.78
2022-09-02T01:04:04.367Z,99498.53
2022-09-02T01:05:43.768Z,99499.38
2022-09-02T01:07:16.487Z,99496.94
2022-09-02T01:08:54.659Z,99492.63
2022-09-02T01:10:34.933Z,99488.19
2022-09-02T01:12:07.420Z,99491.78
2022-09-02T01:13:42.814Z,99487.47
2022-09-02T01:15:16.139Z,99485.78
2022-09-02T01:16:52.839Z,99487.47
2022-09-02T01:18:30.524Z,99479.66
2022-09-02T01:20:12.134Z,99484.81
2022-09-02T01:21:52.188Z,99485.66
2022-09-02T01:23:24.252Z,99486.72
2022-09-02T01:25:02.027Z,99487.56
2022-09-02T01:26:34.032Z,99491.34
2022-09-02T01:28:08.875Z,99496.31
2022-09-02T01:29:40.928Z,99496.44
2022-09-02T01:31:13.327Z,99487.78
2022-09-02T01:32:45.834Z,99499.91
2022-09-02T01:34:18.552Z,99499.06
2022-09-02T01:35:51.306Z,99499.06
2022-09-02T01:37:23.652Z,99503.50
2022-09-02T01:38:55.723Z,99501.78
2022-09-02T01:40:29.359Z,99501.69
2022-09-02T01:42:01.543Z,99493.16
2022-09-02T01:43:33.607Z,99494.94
2022-09-02T01:45:06.646Z,99487.78
2022-09-02T02:41:47.915Z,99455.53
2022-09-02T02:43:21.204Z,99456.50
2022-09-02T02:44:53.273Z,99450.91
2022-09-02T02:46:25.625Z,99451.97
2022-09-02T02:47:59.323Z,99448.59
2022-09-02T02:49:31.301Z,99446.06
2022-09-02T02:51:04.232Z,99447.13
2022-09-02T02:52:36.334Z,99443.94
2022-09-02T02:54:08.587Z,99445.66
2022-09-02T02:55:41.098Z,99457.84
2022-09-02T02:57:13.129Z,99460.59
2022-09-02T02:58:45.213Z,99459.03
2022-09-02T03:00:24.295Z,99460.59
2022-09-02T03:01:56.591Z,99461.75
2022-09-02T03:03:29.326Z,99463.13
2022-09-02T03:05:01.946Z,99472.59
2022-09-02T03:06:34.147Z,99462.94
2022-09-02T03:08:07.514Z,99466.31
2022-09-02T03:09:39.537Z,99473.25
2022-09-02T03:11:11.926Z,99468.81
2022-09-02T03:12:47.238Z,99474.19
2022-09-02T03:14:19.524Z,99479.34
2022-09-02T03:15:52.670Z,99468.72
2022-09-02T03:17:24.811Z,99471.56
2022-09-02T03:18:56.958Z,99469.03
2022-09-02T03:20:29.136Z,99468.19
2022-09-02T03:22:01.207Z,99464.81
2022-09-02T03:23:33.281Z,99462.38
2022-09-02T03:25:07.215Z,99454.38
2022-09-02T03:26:41.497Z,99459.75
2022-09-02T03:28:13.952Z,99457.22
2022-09-02T03:29:46.027Z,99459.97
2022-09-02T03:31:21.473Z,99454.72
2022-09-02T03:32:56.894Z,99458.28
2022-09-02T03:34:32.475Z,99464.50
2022-09-02T03:36:04.704Z,99466.50
2022-09-02T03:37:37.445Z,99463.13
2022-09-02T03:39:10.302Z,99465.88
2022-09-02T03:40:42.689Z,99465.88
2022-09-02T03:42:19.266Z,99459.75
2022-09-02T03:43:52.007Z,99468.41
2022-09-02T03:45:24.785Z,99464.69
2022-09-02T03:46:56.769Z,99466.50
2022-09-02T03:48:30.622Z,99481.25
2022-09-02T03:50:03.905Z,99467.97
2022-09-02T03:51:35.888Z,99480.91
2022-09-02T03:53:08.493Z,99475.97
2022-09-02T03:54:40.529Z,99481.38
2022-09-02T03:56:15.753Z,99490.94
2022-09-02T03:57:48.094Z,99497.91
2022-09-02T03:59:20.353Z,99492.75
2022-09-02T04:00:55.521Z,99497.78
2022-09-02T04:02:27.781Z,99503.19
2022-09-02T04:04:02.952Z,99507.38
2022-09-02T04:05:35.138Z,99506.66
2022-09-02T04:07:07.227Z,99519.06
2022-09-02T04:08:40.789Z,99523.38
2022-09-02T04:10:12.937Z,99525.25
2022-09-02T04:11:45.882Z,99532.25
2022-09-02T04:13:18.229Z,99530.75
2022-09-02T04:14:50.393Z,99540.22
2022-09-02T04:16:29.884Z,99534.13
2022-09-02T04:18:02.039Z,99543.69
2022-09-02T04:19:34.120Z,99542.34
2022-09-02T04:21:06.919Z,99545.81
2022-09-02T04:30:04.615Z,99548.81
2022-09-02T04:31:37.109Z,99542.81
2022-09-02T04:33:09.775Z,99555.75
2022-09-02T04:34:41.925Z,99553.88
2022-09-02T04:36:16.477Z,99554.53
2022-09-02T04:37:49.405Z,99555.38
2022-09-02T04:39:21.637Z,99557.19
2022-09-02T04:40:53.697Z,99560.66
2022-09-02T04:42:26.164Z,99556.34
2022-09-02T04:43:59.884Z,99551.81
2022-09-02T04:45:32.058Z,99559.81
2022-09-02T04:47:04.391Z,99550.41
2022-09-02T04:48:37.921Z,99555.38
2022-09-02T04:50:10.353Z,99563.00
2022-09-02T04:51:42.518Z,99568.34
2022-09-02T04:53:14.925Z,99564.03
2022-09-02T04:54:47.646Z,99558.00
2022-09-02T04:56:22.427Z,99568.13
2022-09-02T04:57:54.542Z,99563.09
2022-09-02T04:59:27.426Z,99572.56
2022-09-02T05:00:59.891Z,99559.72
2022-09-02T05:02:32.136Z,99563.75
2022-09-02T05:04:10.493Z,99576.38
2022-09-02T05:05:42.599Z,99575.63
2022-09-02T05:07:14.746Z,99574.69
2022-09-02T05:08:48.461Z,99576.38
2022-09-02T05:10:20.630Z,99588.59
2022-09-02T05:11:52.811Z,99596.50
2022-09-02T05:13:26.378Z,99603.25
2022-09-02T05:15:01.374Z,99604.94
2022-09-02T05:16:37.545Z,99613.38
2022-09-02T05:18:10.279Z,99603.88
2022-09-02T05:19:42.392Z,99596.09
2022-09-02T05:21:14.652Z,99584.69
2022-09-02T05:22:46.861Z,99564.91
2022-09-02T05:24:22.196Z,99564.69
2022-09-02T05:25:58.020Z,99564.69
2022-09-02T05:27:30.210Z,99571.75
2022-09-02T05:29:07.163Z,99563.94
2022-09-02T05:30:41.481Z,99577.66
2022-09-02T05:32:13.975Z,99575.03
2022-09-02T05:33:46.666Z,99578.81
2022-09-02T05:35:18.711Z,99577.00
2022-09-02T05:36:50.802Z,99587.47
2022-09-02T05:38:22.944Z,99577.75
2022-09-02T05:39:55.063Z,99576.78
2022-09-02T05:41:27.961Z,99578.09
2022-09-02T05:43:00.107Z,99585.16
2022-09-02T05:44:32.495Z,99578.91
2022-09-02T05:46:09.330Z,99570.19
2022-09-02T05:47:41.508Z,99575.53
2022-09-02T05:49:18.152Z,99574.63
2022-09-02T05:50:50.360Z,99568.69
2022-09-02T05:52:31.562Z,99561.63
2022-09-02T05:54:03.741Z,99572.91
2022-09-02T05:55:36.294Z,99574.81
2022-09-02T05:57:14.362Z,99571.97
2022-09-02T05:58:50.277Z,99575.13
2022-09-02T06:00:25.814Z,99573.56
2022-09-02T06:01:59.501Z,99583.25
2022-09-02T06:03:31.965Z,99576.38
2022-09-02T06:05:04.426Z,99578.91
2022-09-02T06:06:38.930Z,99586.00
2022-09-02T06:08:11.145Z,99581.97
2022-09-02T06:09:45.016Z,99589.56
2022-09-02T06:11:18.374Z,99586.81
2022-09-02T06:12:50.501Z,99599.06
2022-09-02T06:14:25.556Z,99596.19
2022-09-02T06:15:58.170Z,99595.28
2022-09-02T06:17:30.285Z,99597.78
2022-09-02T06:19:07.132Z,99592.31
2022-09-02T06:20:43.380Z,99588.72
2022-09-02T06:22:15.515Z,99590.63
2022-09-02T06:23:48.690Z,99598.19
2022-09-02T06:25:21.288Z,99591.47
2022-09-02T06:26:55.617Z,99594.72
2022-09-02T06:28:27.962Z,99587.97
2022-09-02T06:29:59.984Z,99588.63
2022-09-02T06:31:34.511Z,99589.59
2022-09-02T06:33:07.074Z,99584.41
2022-09-02T06:34:39.717Z,99590.44
2022-09-02T06:36:15.095Z,99592.94
2022-09-02T06:37:47.271Z,99596.53
2022-09-02T06:39:21.462Z,99600.84
2022-09-02T06:40:55.639Z,99595.56
2022-09-02T06:42:27.881Z,99590.53
2022-09-02T06:44:02.512Z,99595.56
2022-09-02T06:45:40.310Z,99592.00
2022-09-02T06:47:13.136Z,99589.59
2022-09-02T06:48:45.708Z,99594.84
2022-09-02T06:50:17.998Z,99593.38
2022-09-02T06:51:52.356Z,99597.38
2022-09-02T06:53:24.868Z,99595.78
2022-09-02T06:54:57.263Z,99594.00
2022-09-02T06:56:29.734Z,99589.69
2022-09-02T06:58:01.850Z,99599.06
2022-09-02T06:59:34.233Z,99598.19
2022-09-02T07:01:07.923Z,99596.44
2022-09-02T07:02:43.390Z,99602.53
2022-09-02T07:04:35.336Z,99602.63
2022-09-02T07:06:11.251Z,99610.22
2022-09-02T07:07:46.423Z,99615.72
2022-09-02T07:09:24.559Z,99613.81
2022-09-02T07:10:56.706Z,99625.19
2022-09-02T07:12:29.021Z,99622.47
2022-09-02T07:14:02.225Z,99619.81
2022-09-02T07:15:34.589Z,99625.41
2022-09-02T07:17:07.500Z,99626.47
2022-09-02T07:18:40.154Z,99631.84
2022-09-02T07:20:12.927Z,99629.00
2022-09-02T07:21:47.070Z,99638.38
2022-09-02T07:23:19.448Z,99633.31
2022-09-02T07:24:51.970Z,99635.88
2022-09-02T07:26:24.442Z,99637.53
2022-09-02T07:27:56.775Z,99637.75
2022-09-02T07:29:29.147Z,99638.59
2022-09-02T07:31:01.290Z,99634.06
2022-09-02T07:32:34.779Z,99620.88
2022-09-02T07:34:07.800Z,99621.81
2022-09-02T07:35:41.801Z,99614.97
2022-09-02T07:37:14.292Z,99624.59
2022-09-02T07:38:46.722Z,99619.50
2022-09-02T07:40:19.153Z,99623.72
2022-09-02T07:41:52.766Z,99617.59
2022-09-02T07:43:25.313Z,99616.34
2022-09-02T07:44:57.702Z,99617.50
2022-09-02T07:46:32.065Z,99621.94
2022-09-02T07:48:08.232Z,99616.69
2022-09-02T07:51:33.799Z,99617.72
2022-09-02T07:53:06.984Z,99621.81
2022-09-02T07:54:39.321Z,99622.78
2022-09-02T07:56:14.256Z,99627.09
2022-09-02T08:18:46.773Z,99631.75
2022-09-02T08:20:19.327Z,99637.75
2022-09-02T08:21:52.316Z,99638.41
2022-09-02T08:23:40.292Z,99636.81
2022-09-02T08:25:12.954Z,99637.66
2022-09-02T08:26:46.518Z,99636.81
2022-09-02T08:28:19.518Z,99638.69
2022-09-02T08:29:51.840Z,99635.31
2022-09-02T08:31:24.188Z,99637.97
2022-09-02T08:32:57.415Z,99631.00
2022-09-02T08:34:29.592Z,99636.06
2022-09-02T08:36:09.687Z,99638.81
2022-09-02T08:37:42.059Z,99635.53
2022-09-02T08:39:14.624Z,99631.44
2022-09-02T08:40:47.178Z,99632.28
2022-09-02T08:42:25.656Z,99626.06
2022-09-02T08:44:00.641Z,99628.56
2022-09-02T08:45:37.740Z,99639.13
2022-09-02T08:47:14.126Z,99632.91
2022-09-02T08:48:53.664Z,99632.91
2022-09-02T08:50:25.926Z,99629.44
2022-09-02T08:52:00.952Z,99626.69
2022-09-02T08:53:33.590Z,99627.53
2022-09-02T08:55:08.212Z,99622.13
2022-09-02T08:56:42.163Z,99633.66
2022-09-02T08:58:18.701Z,99631.66
2022-09-02T08:59:53.125Z,99634.47
2022-09-02T09:01:54.510Z,99627.13
2022-09-02T09:03:37.307Z,99632.16
2022-09-02T09:05:31.866Z,99632.06
2022-09-02T09:07:29.248Z,99637.22
2022-09-02T09:09:12.168Z,99622.25
2022-09-02T09:11:16.636Z,99626.47
2022-09-02T09:13:08.847Z,99620.13
2022-09-02T09:14:46.795Z,99622.63
2022-09-02T09:16:41.372Z,99619.97
2022-09-02T09:18:17.942Z,99622.78
2022-09-02T09:19:50.255Z,99618.47
2022-09-02T09:23:34.943Z,99623.97
2022-09-02T09:25:11.821Z,99619.56
2022-09-02T09:26:45.249Z,99621.22
2022-09-02T09:28:17.575Z,99626.50
2022-09-02T09:29:51.494Z,99624.59
2022-09-02T09:33:15.841Z,99633.25
2022-09-02T09:34:53.770Z,99633.25
2022-09-02T09:36:41.399Z,99631.34
2022-09-02T09:38:16.385Z,99630.50
2022-09-02T09:39:48.991Z,99628.81
2022-09-02T09:41:24.487Z,99640.00
2022-09-02T09:43:16.561Z,99625.88
2022-09-02T09:44:49.638Z,99630.41
2022-09-02T09:46:32.694Z,99629.44
2022-09-02T09:48:20.066Z,99628.59
2022-09-02T09:49:55.127Z,99633.88
2022-09-02T09:51:27.735Z,99629.66
2022-09-02T09:53:15.135Z,99627.78
2022-09-02T09:54:47.217Z,99633.25
2022-09-02T09:56:27.589Z,99631.25
2022-09-02T09:58:08.438Z,99631.34
2022-09-02T09:59:47.896Z,99627.97
2022-09-02T10:01:29.526Z,99625.34
2022-09-02T10:03:05.239Z,99629.03
2022-09-02T10:04:43.276Z,99620.47
2022-09-02T10:06:22.457Z,99621.31
2022-09-02T10:08:00.618Z,99626.72
2022-09-02T10:09:35.464Z,99625.84
2022-09-02T10:11:21.688Z,99620.47
2022-09-02T10:12:57.517Z,99613.53
2022-09-02T10:14:39.050Z,99614.47
2022-09-02T10:16:30.093Z,99611.84
2022-09-02T10:18:14.310Z,99617.34
2022-09-02T10:20:12.524Z,99614.81
2022-09-02T10:22:06.013Z,99613.97
2022-09-02T10:23:59.197Z,99616.59
2022-09-02T10:25:34.327Z,99615.94
2022-09-02T10:27:11.978Z,99620.25
2022-09-02T10:29:04.121Z,99614.34
2022-09-02T10:30:56.505Z,99611.50
2022-09-02T10:32:44.516Z,99624.66
2022-09-02T10:34:19.862Z,99611.59
2022-09-02T10:36:02.681Z,99619.25
2022-09-02T10:37:58.235Z,99612.16
2022-09-02T10:39:40.059Z,99618.06
2022-09-02T10:41:24.238Z,99614.38
2022-09-02T10:43:03.105Z,99617.84
2022-09-02T10:44:50.008Z,99618.81
2022-09-02T10:46:25.936Z,99610.16
2022-09-02T10:48:04.853Z,99614.69
2022-09-02T10:49:46.285Z,99624.38
2022-09-02T10:51:25.228Z,99626.91
2022-09-02T10:53:18.641Z,99626.91
2022-09-02T10:55:01.694Z,99625.25
2022-09-02T10:56:39.883Z,99629.66
2022-09-02T10:58:38.853Z,99619.97
2022-09-02T11:00:11.805Z,99619.25
2022-09-02T11:02:01.010Z,99614.56
2022-09-02T11:03:41.866Z,99617.34
2022-09-02T11:05:36.408Z,99601.69
2022-09-02T11:07:11.286Z,99606.31
2022-09-02T11:09:20.706Z,99602.53
2022-09-02T11:11:16.582Z,99614.69
2022-09-02T11:12:56.293Z,99613.00
2022-09-02T11:14:35.427Z,99610.38
2022-09-02T11:16:19.695Z,99612.81
2022-09-02T11:18:04.183Z,99609.09
2022-09-02T11:22:06.395Z,99616.03
2022-09-02T11:23:51.598Z,99617.84
2022-09-02T11:25:33.667Z,99614.28
2022-09-02T11:27:32.213Z,99615.09
2022-09-02T11:29:15.952Z,99613.41
2022-09-02T11:31:09.218Z,99606.66
2022-09-02T11:32:47.594Z,99611.09
2022-09-02T11:34:42.850Z,99610.91
2022-09-02T11:36:15.269Z,99609.59
2022-09-02T11:38:03.457Z,99608.38
2022-09-02T11:40:30.543Z,99605.63
2022-09-02T11:42:15.569Z,99605.50
2022-09-02T11:44:15.037Z,99608.88
2022-09-02T11:45:59.758Z,99612.25
2022-09-02T11:47:56.725Z,99603.31
2022-09-02T11:49:49.498Z,99600.66
2022-09-02T11:51:49.416Z,99596.13
2022-09-02T11:53:28.936Z,99588.22
2022-09-02T11:55:09.831Z,99586.63
2022-09-02T11:56:44.944Z,99583.88
2022-09-02T11:58:39.556Z,99586.50
2022-09-02T12:00:34.739Z,99590.13
2022-09-02T12:02:07.983Z,99586.00
2022-09-02T12:04:12.042Z,99584.09
2022-09-02T12:05:38.249Z,99584.09
2022-09-02T12:07:13.653Z,99584.59
2022-09-02T12:08:46.100Z,99584.94
2022-09-02T12:10:48.902Z,99595.88
2022-09-02T12:12:39.331Z,99594.22
2022-09-02T12:14:26.573Z,99583.25
2022-09-02T12:16:16.224Z,99594.22
2022-09-02T12:17:48.509Z,99583.88
2022-09-02T12:19:28.394Z,99581.88
2022-09-02T12:21:00.706Z,99583.66
2022-09-02T12:22:40.715Z,99581.78
2022-09-02T12:24:20.573Z,99577.34
2022-09-02T12:25:58.578Z,99582.72
2022-09-02T12:27:39.615Z,99580.81
2022-09-02T12:29:20.686Z,99575.28
2022-09-02T12:31:15.371Z,99580.47
2022-09-02T12:32:49.103Z,99581.44
2022-09-02T12:34:21.141Z,99579.63
2022-09-02T12:35:54.614Z,99576.75
2022-09-02T12:37:51.878Z,99577.28
2022-09-02T12:39:27.939Z,99586.16
2022-09-02T12:41:07.832Z,99580.56
2022-09-02T12:42:41.380Z,99582.34
2022-09-02T12:44:27.986Z,99576.03
2022-09-02T12:46:25.007Z,99580.22
2022-09-02T12:48:18.205Z,99583.59
2022-09-02T12:50:08.252Z,99574.72
2022-09-02T12:52:05.468Z,99575.34
2022-09-02T12:53:41.955Z,99572.06
2022-09-02T12:55:19.103Z,99569.69
2022-09-02T12:56:52.024Z,99563.31
2022-09-02T12:58:25.301Z,99566.81
2022-09-02T12:59:59.001Z,99556.97
2022-09-02T13:01:43.595Z,99559.50
2022-09-02T13:03:38.773Z,99548.84
2022-09-02T13:07:11.233Z,99547.28
2022-09-02T13:09:10.962Z,99539.13
2022-09-02T13:11:11.178Z,99547.69
2022-09-02T13:13:21.433Z,99540.50
2022-09-02T13:15:13.763Z,99542.31
2022-09-02T13:17:25.841Z,99537.03
2022-09-02T13:19:17.203Z,99542.91
2022-09-02T13:20:55.830Z,99537.63
2022-09-02T13:22:37.659Z,99542.78
2022-09-02T13:24:32.530Z,99547.63
2022-09-02T13:26:49.591Z,99544.00
2022-09-02T13:28:46.109Z,99544.63
2022-09-02T13:30:23.563Z,99544.63
2022-09-02T13:32:18.292Z,99544.53
2022-09-02T13:34:05.375Z,99540.19
2022-09-02T13:35:41.038Z,99543.19
2022-09-02T13:37:43.546Z,99541.72
2022-09-02T13:39:20.177Z,99545.31
2022-09-02T13:40:52.403Z,99538.44
2022-09-02T13:42:33.012Z,99538.97
2022-09-02T13:44:07.767Z,99541.38
2022-09-02T13:45:40.790Z,99541.06
2022-09-02T13:47:22.724Z,99534.47
2022-09-02T13:48:55.445Z,99534.28
2022-09-02T13:50:30.221Z,99532.03
2022-09-02T13:52:03.355Z,99535.28
2022-09-02T13:53:53.707Z,99531.31
2022-09-02T13:55:33.714Z,99532.66
2022-09-02T13:57:09.508Z,99535.81
2022-09-02T13:58:51.715Z,99541.59
2022-09-02T14:00:39.019Z,99540.50
2022-09-02T14:02:25.538Z,99545.56
2022-09-02T14:04:00.782Z,99537.66
2022-09-02T14:05:36.583Z,99543.53
2022-09-02T14:07:09.632Z,99546.06
2022-09-02T14:08:42.656Z,99540.56
2022-09-02T14:10:20.483Z,99540.19
2022-09-02T14:11:54.205Z,99534.81
2022-09-02T14:13:27.659Z,99537.91
2022-09-02T14:15:00.235Z,99536.00
2022-09-02T14:16:35.284Z,99536.97
2022-09-02T14:18:09.678Z,99540.19
2022-09-02T14:19:42.454Z,99538.75
2022-09-02T14:21:20.535Z,99545.19
2022-09-02T14:22:57.555Z,99551.25
2022-09-02T14:24:37.942Z,99547.91
2022-09-02T14:26:10.593Z,99553.41
2022-09-02T14:27:50.881Z,99551.72
2022-09-02T14:29:23.942Z,99558.91
2022-09-02T14:30:59.029Z,99555.47
2022-09-02T14:32:31.453Z,99560.56
2022-09-02T14:34:05.084Z,99564.88
2022-09-02T14:35:37.725Z,99566.78
2022-09-02T14:37:19.196Z,99565.13
2022-09-02T14:38:55.510Z,99573.97
2022-09-02T14:40:37.757Z,99571.41
2022-09-02T14:42:10.102Z,99573.13
2022-09-02T14:45:26.946Z,99575.44
2022-09-02T14:47:01.907Z,99571.00
2022-09-02T14:48:39.392Z,99567.63
2022-09-02T14:50:17.872Z,99569.50
2022-09-02T14:51:55.217Z,99560.47
2022-09-02T14:53:27.546Z,99558.06
2022-09-02T14:55:00.041Z,99567.78
2022-09-02T14:56:53.898Z,99573.69
2022-09-02T14:58:28.301Z,99572.94
2022-09-02T15:00:19.031Z,99581.09
2022-09-02T15:01:52.947Z,99582.88
2022-09-02T15:03:25.660Z,99583.00
2022-09-02T15:05:00.225Z,99586.59
2022-09-02T15:06:32.553Z,99596.41
2022-09-02T15:08:04.959Z,99590.50
2022-09-02T15:09:37.353Z,99598.75
2022-09-02T15:11:09.788Z,99603.53
2022-09-02T15:12:50.133Z,99598.16
2022-09-02T15:14:22.555Z,99604.72
2022-09-02T15:15:55.952Z,99601.53
2022-09-02T15:17:30.009Z,99598.91
2022-09-02T15:19:02.427Z,99599.97
2022-09-02T15:20:38.073Z,99594.78
2022-09-02T15:22:10.521Z,99597.66
2022-09-02T15:23:47.865Z,99595.97
2022-09-02T15:25:23.462Z,99597.66
2022-09-02T15:26:56.194Z,99595.84
2022-09-02T15:28:30.419Z,99594.19
2022-09-02T15:30:02.769Z,99593.31
2022-09-02T15:31:38.446Z,99596.59
2022-09-02T15:33:16.721Z,99594.06
2022-09-02T15:34:50.307Z,99595.22
2022-09-02T15:36:24.043Z,99596.94
2022-09-02T15:37:56.538Z,99596.09
2022-09-02T15:39:29.141Z,99604.84
2022-09-02T15:41:19.534Z,99605.56
2022-09-02T15:44:27.677Z,99599.56
2022-09-02T15:45:59.975Z,99592.59
2022-09-02T15:47:35.393Z,99595.97
2022-09-02T15:49:10.298Z,99602.94
2022-09-02T15:50:43.457Z,99602.22
2022-09-02T15:52:18.906Z,99604.84
2022-09-02T15:53:58.338Z,99608.22
2022-09-02T15:55:34.440Z,99604.84
2022-09-02T15:57:07.251Z,99602.31
2022-09-02T15:58:40.045Z,99602.41
2022-09-02T16:00:13.138Z,99600.63
2022-09-02T16:01:50.812Z,99594.38
2022-09-02T16:03:23.298Z,99592.72
2022-09-02T16:04:56.631Z,99590.19
2022-09-02T16:06:30.246Z,99592.00
2022-09-02T16:08:02.969Z,99590.91
2022-09-02T16:09:35.415Z,99581.44
2022-09-02T16:11:09.394Z,99586.56
2022-09-02T16:12:42.975Z,99579.63
2022-09-02T16:14:20.547Z,99575.28
2022-09-02T16:16:01.261Z,99571.00
2022-09-02T16:19:07.855Z,99578.91
2022-09-02T16:20:40.222Z,99576.50
2022-09-02T16:22:12.665Z,99582.59
2022-09-02T16:23:45.047Z,99581.63
2022-09-02T16:25:17.557Z,99577.22
2022-09-02T16:26:51.388Z,99586.81
2022-09-02T16:28:23.760Z,99581.63
2022-09-02T16:29:59.380Z,99582.50
2022-09-02T16:31:33.581Z,99585.34
2022-09-02T16:33:06.297Z,99582.72
2022-09-02T16:34:38.872Z,99580.06
2022-09-02T16:36:11.836Z,99575.63
2022-09-02T16:37:44.232Z,99580.91
2022-09-02T16:39:17.243Z,99574.91
2022-09-02T16:40:57.676Z,99581.78
2022-09-02T16:42:32.075Z,99579.44
2022-09-02T16:44:09.737Z,99575.97
2022-09-02T16:45:42.160Z,99591.28
2022-09-02T16:47:14.691Z,99588.00
2022-09-02T16:48:47.509Z,99591.47
2022-09-02T16:50:20.559Z,99598.56
2022-09-02T16:51:58.382Z,99594.00
2022-09-02T16:53:31.947Z,99595.81
2022-09-02T16:55:04.508Z,99609.00
2022-09-02T16:56:38.246Z,99610.78
2022-09-02T16:58:11.748Z,99609.84
2022-09-02T16:59:46.082Z,99617.75
2022-09-02T17:01:19.345Z,99614.47
2022-09-02T17:02:52.218Z,99606.66
2022-09-02T17:04:24.890Z,99611.00
2022-09-02T17:05:57.472Z,99610.91
2022-09-02T17:07:29.952Z,99612.56
2022-09-02T17:09:02.161Z,99614.28
2022-09-02T17:10:35.357Z,99617.75
2022-09-02T17:12:07.654Z,99619.31
2022-09-02T17:13:40.968Z,99622.19
2022-09-02T17:15:13.335Z,99625.03
2022-09-02T17:16:47.901Z,99624.19
2022-09-02T17:18:20.494Z,99617.50
2022-09-02T17:19:52.991Z,99625.63
2022-09-02T17:21:36.526Z,99618.47
2022-09-02T17:23:09.182Z,99632.25
2022-09-02T17:24:42.486Z,99628.78
2022-09-02T17:26:15.513Z,99636.38
2022-09-02T17:27:47.893Z,99631.34
2022-09-02T17:29:47.552Z,99638.28
2022-09-02T17:31:19.538Z,99643.34
2022-09-02T17:32:56.186Z,99644.38
2022-09-02T17:34:29.107Z,99646.19
2022-09-02T17:36:02.034Z,99638.50
2022-09-02T17:37:37.959Z,99645.44
2022-09-02T17:39:15.635Z,99645.34
2022-09-02T17:41:06.523Z,99643.88
2022-09-02T17:42:38.686Z,99650.94
2022-09-02T17:44:11.997Z,99650.94
2022-09-02T17:45:44.078Z,99651.03
2022-09-02T17:47:21.945Z,99652.94
2022-09-02T17:49:15.782Z,99662.84
2022-09-02T17:50:46.718Z,99654.41
2022-09-02T17:52:22.036Z,99658.84
2022-09-02T17:53:54.425Z,99669.56
2022-09-02T17:55:26.877Z,99674.94
2022-09-02T17:57:17.975Z,99675.69
2022-09-02T17:59:09.019Z,99676.75
2022-09-02T18:00:41.703Z,99681.19
2022-09-02T18:02:38.095Z,99681.19
2022-09-02T18:04:47.492Z,99678.53
2022-09-02T18:06:23.011Z,99674.09
2022-09-02T18:08:09.765Z,99683.81
2022-09-02T18:09:42.086Z,99684.66
2022-09-02T18:11:14.648Z,99680.34
2022-09-02T18:12:47.009Z,99684.66
2022-09-02T18:14:43.811Z,99691.50
2022-09-02T18:16:29.316Z,99692.38
2022-09-02T18:18:04.051Z,99697.91
2022-09-02T18:19:44.331Z,99696.16
2022-09-02T18:21:32.908Z,99694.34
2022-09-02T18:23:33.186Z,99702.03
2022-09-02T18:25:44.707Z,99700.38
2022-09-02T18:27:39.099Z,99702.16
2022-09-02T18:29:18.071Z,99717.09
2022-09-02T18:31:06.292Z,99706.88
2022-09-02T18:32:47.330Z,99704.88
2022-09-02T18:34:30.557Z,99708.34
2022-09-02T18:36:10.852Z,99701.41
2022-09-02T18:37:50.653Z,99707.53
2022-09-02T18:39:28.524Z,99705.53
2022-09-02T18:41:13.946Z,99699.31
2022-09-02T18:43:05.684Z,99714.28
2022-09-02T18:44:40.977Z,99707.44
2022-09-02T18:46:15.489Z,99709.00
2022-09-02T18:47:57.436Z,99715.22
2022-09-02T18:49:33.491Z,99715.53
2022-09-02T18:51:11.504Z,99719.63
2022-09-02T18:52:45.867Z,99719.59
2022-09-02T18:54:31.433Z,99717.44
2022-09-02T18:56:08.026Z,99716.34
2022-09-02T18:57:59.739Z,99723.72
2022-09-02T18:59:35.878Z,99724.78
2022-09-02T19:01:27.424Z,99726.91
2022-09-02T19:03:06.178Z,99727.34
2022-09-02T19:04:38.690Z,99725.34
2022-09-02T19:06:18.472Z,99723.22
2022-09-02T19:08:19.271Z,99728.28
2022-09-02T19:09:51.869Z,99728.66
2022-09-02T19:11:26.303Z,99722.88
2022-09-02T19:13:01.773Z,99721.34
2022-09-02T19:14:34.305Z,99729.41
2022-09-02T19:16:06.928Z,99723.59
2022-09-02T19:17:40.173Z,99721.16
2022-09-02T19:19:14.315Z,99721.53
2022-09-02T19:20:46.658Z,99719.25
2022-09-02T19:22:22.146Z,99721.97
2022-09-02T19:23:54.633Z,99719.78
2022-09-02T19:25:29.418Z,99713.63
2022-09-02T19:27:10.387Z,99715.66
2022-09-02T19:28:43.022Z,99720.34
2022-09-02T19:30:20.748Z,99714.16
2022-09-02T19:31:54.879Z,99710.50
2022-09-02T19:33:31.796Z,99713.97
2022-09-02T19:35:16.820Z,99710.84
2022-09-02T19:36:50.377Z,99715.34
2022-09-02T19:38:22.574Z,99712.81
2022-09-02T19:39:54.920Z,99708.66
2022-09-02T19:41:28.533Z,99714.69
2022-09-02T19:43:05.267Z,99710.25
2022-09-02T19:44:39.412Z,99708.75
2022-09-02T19:46:27.695Z,99705.38
2022-09-02T19:48:07.577Z,99712.06
2022-09-02T19:49:41.266Z,99718.34
2022-09-02T19:51:15.064Z,99719.94
2022-09-02T19:52:49.708Z,99716.72
2022-09-02T19:54:22.098Z,99723.00
2022-09-02T19:55:54.245Z,99722.16
2022-09-02T19:57:26.745Z,99728.34
2022-09-02T19:58:59.074Z,99725.72
2022-09-02T20:00:33.869Z,99726.56
2022-09-02T20:02:06.761Z,99725.53
2022-09-02T20:03:38.949Z,99727.22
2022-09-02T20:05:12.824Z,99725.47
2022-09-02T20:06:44.950Z,99727.34
2022-09-02T20:08:18.033Z,99733.44
2022-09-02T20:09:50.269Z,99724.72
2022-09-02T20:11:22.829Z,99721.97
2022-09-02T20:12:55.217Z,99727.22
2022-09-02T20:14:27.649Z,99726.47
2022-09-02T20:16:00.671Z,99729.69
2022-09-02T20:17:32.914Z,99731.56
2022-09-02T20:19:08.751Z,99728.72
2022-09-02T20:20:45.690Z,99735.69
2022-09-02T20:22:21.820Z,99734.75
2022-09-02T20:23:55.391Z,99726.22
2022-09-02T20:25:53.241Z,99730.09
2022-09-02T20:27:59.135Z,99731.69
2022-09-02T20:29:55.150Z,99736.84
2022-09-02T20:31:37.004Z,99736.66
2022-09-02T20:33:17.832Z,99734.97
2022-09-02T20:35:03.433Z,99732.44
2022-09-02T20:37:12.718Z,99750.75
2022-09-02T20:38:59.196Z,99734.97
2022-09-02T20:40:46.669Z,99738.53
2022-09-02T20:42:49.891Z,99741.06